createdAt,value
2022-10-29T00:00:57.247Z,12.10
2022-10-29T00:03:25.279Z,12.10
2022-10-29T00:06:04.450Z,12.10
2022-10-29T00:08:34.805Z,12.10
2022-10-29T00:11:20.365Z,12.10
2022-10-29T00:13:52.552Z,12.10
2022-10-29T00:16:23.131Z,12.10
2022-10-29T00:18:50.023Z,12.10
2022-10-29T00:21:20.192Z,12.10
2022-10-29T00:23:48.098Z,12.00
2022-10-29T00:26:15.903Z,12.10
2022-10-29T00:28:42.908Z,12.10
2022-10-29T00:31:15.912Z,12.10
2022-10-29T00:33:43.342Z,12.00
2022-10-29T00:36:16.085Z,12.00
2022-10-29T00:38:43.480Z,12.00
2022-10-29T00:41:16.531Z,12.10
2022-10-29T00:44:15.347Z,12.10
2022-10-29T00:46:47.275Z,12.10
2022-10-29T00:49:15.675Z,12.10
2022-10-29T00:51:42.827Z,12.10
2022-10-29T00:54:12.898Z,12.20
2022-10-29T00:57:13.693Z,12.20
2022-10-29T00:59:42.656Z,12.20
2022-10-29T01:02:10.544Z,12.10
2022-10-29T01:04:38.968Z,12.30
2022-10-29T01:07:06.471Z,12.30
2022-10-29T01:09:33.377Z,12.30
2022-10-29T01:12:21.517Z,12.20
2022-10-29T01:15:07.095Z,12.10
2022-10-29T01:18:07.544Z,12.00
2022-10-29T01:21:14.365Z,11.90
2022-10-29T01:24:37.155Z,11.70
2022-10-29T01:27:26.452Z,11.60
2022-10-29T01:30:21.447Z,11.60
2022-10-29T01:32:54.169Z,11.60
2022-10-29T01:35:30.228Z,11.60
2022-10-29T01:38:11.454Z,11.60
2022-10-29T01:41:15.034Z,11.60
2022-10-29T01:43:52.104Z,11.50
2022-10-29T01:46:42.589Z,11.40
2022-10-29T01:49:22.705Z,11.40
2022-10-29T01:51:50.959Z,11.30
2022-10-29T01:54:17.764Z,11.30
2022-10-29T01:56:52.660Z,11.20
2022-10-29T01:59:35.227Z,11.30
2022-10-29T02:02:39.552Z,11.30
2022-10-29T02:05:44.722Z,11.20
2022-10-29T02:08:20.206Z,11.20
2022-10-29T02:11:23.842Z,11.20
2022-10-29T02:14:07.353Z,11.20
2022-10-29T02:16:34.831Z,11.20
2022-10-29T02:19:02.082Z,11.30
2022-10-29T02:21:28.850Z,11.40
2022-10-29T02:23:55.700Z,11.30
2022-10-29T02:26:22.583Z,11.30
2022-10-29T02:28:49.428Z,11.40
2022-10-29T02:31:16.250Z,11.40
2022-10-29T02:33:43.042Z,11.40
2022-10-29T02:36:09.951Z,11.40
2022-10-29T02:38:36.751Z,11.30
2022-10-29T02:41:03.536Z,11.20
2022-10-29T02:43:30.327Z,11.10
2022-10-29T02:46:19.160Z,11.10
2022-10-29T02:48:46.400Z,11.10
2022-10-29T02:51:13.543Z,11.10
2022-10-29T02:53:40.645Z,11.00
2022-10-29T02:56:07.944Z,11.00
2022-10-29T02:58:34.876Z,11.10
2022-10-29T03:01:02.189Z,11.10
2022-10-29T03:03:29.503Z,11.00
2022-10-29T03:05:56.292Z,11.10
2022-10-29T03:08:23.138Z,11.20
2022-10-29T03:10:49.928Z,11.10
2022-10-29T03:13:17.914Z,11.10
2022-10-29T03:15:46.234Z,11.10
2022-10-29T03:18:13.065Z,11.10
2022-10-29T03:20:39.951Z,11.00
2022-10-29T03:23:06.779Z,11.00
2022-10-29T03:25:33.607Z,10.80
2022-10-29T03:28:00.371Z,10.80
2022-10-29T03:30:27.198Z,10.80
2022-10-29T03:32:54.394Z,10.90
2022-10-29T03:35:21.715Z,10.80
2022-10-29T03:37:52.464Z,10.80
2022-10-29T03:40:20.282Z,10.80
2022-10-29T03:42:47.068Z,10.90
2022-10-29T03:45:14.213Z,11.00
2022-10-29T03:47:41.063Z,10.80
2022-10-29T03:50:08.887Z,10.80
2022-10-29T03:52:35.997Z,10.90
2022-10-29T03:55:03.283Z,11.00
2022-10-29T03:57:30.102Z,10.90
2022-10-29T03:59:56.936Z,10.90
2022-10-29T04:02:24.789Z,10.80
2022-10-29T04:04:51.627Z,10.80
2022-10-29T04:07:18.825Z,10.90
2022-10-29T04:09:45.665Z,11.00
2022-10-29T04:12:12.423Z,11.20
2022-10-29T04:14:44.473Z,11.30
2022-10-29T04:17:12.722Z,11.40
2022-10-29T04:19:40.449Z,11.50
2022-10-29T04:30:27.874Z,11.30
2022-10-29T04:32:59.578Z,11.20
2022-10-29T04:35:28.858Z,11.30
2022-10-29T04:37:55.790Z,11.40
2022-10-29T04:40:24.757Z,11.30
2022-10-29T04:42:51.586Z,11.40
2022-10-29T04:45:18.756Z,11.30
2022-10-29T04:47:45.958Z,11.30
2022-10-29T04:50:12.786Z,11.30
2022-10-29T04:52:39.630Z,11.20
2022-10-29T04:55:06.804Z,11.20
2022-10-29T04:57:33.617Z,11.10
2022-10-29T05:00:00.428Z,11.10
2022-10-29T05:02:27.219Z,11.10
2022-10-29T05:04:54.007Z,11.00
2022-10-29T05:07:20.767Z,11.10
2022-10-29T05:09:47.572Z,11.20
2022-10-29T05:12:14.357Z,11.30
2022-10-29T05:14:41.136Z,11.30
2022-10-29T05:19:39.666Z,11.50
2022-10-29T05:22:06.450Z,11.50
2022-10-29T05:24:33.217Z,11.60
2022-10-29T05:27:00.088Z,11.60
2022-10-29T05:29:26.891Z,11.60
2022-10-29T05:31:54.587Z,11.60
2022-10-29T05:34:21.581Z,11.70
2022-10-29T05:36:48.603Z,11.70
2022-10-29T05:39:15.651Z,11.80
2022-10-29T05:41:42.432Z,11.80
2022-10-29T05:44:09.648Z,11.80
2022-10-29T05:46:36.514Z,11.80
2022-10-29T05:49:04.168Z,11.80
2022-10-29T05:51:31.029Z,11.80
2022-10-29T05:53:57.814Z,11.70
2022-10-29T05:56:24.607Z,11.70
2022-10-29T05:58:51.708Z,11.70
2022-10-29T06:01:19.846Z,11.70
2022-10-29T06:03:47.419Z,11.60
2022-10-29T06:06:14.312Z,11.70
2022-10-29T06:08:41.183Z,11.70
2022-10-29T06:11:08.145Z,11.70
2022-10-29T06:13:35.990Z,11.70
2022-10-29T06:16:03.042Z,11.60
2022-10-29T06:18:30.064Z,11.60
2022-10-29T06:21:00.548Z,11.70
2022-10-29T06:23:28.642Z,11.70
2022-10-29T06:25:55.459Z,11.60
2022-10-29T06:28:22.278Z,11.80
2022-10-29T06:30:50.432Z,11.90
2022-10-29T06:33:18.677Z,11.90
2022-10-29T06:35:45.999Z,12.00
2022-10-29T06:38:13.244Z,11.90
2022-10-29T06:40:41.595Z,11.90
2022-10-29T06:43:11.747Z,11.90
2022-10-29T06:45:38.679Z,12.00
2022-10-29T06:48:06.084Z,11.90
2022-10-29T06:50:33.034Z,12.00
2022-10-29T06:53:02.764Z,12.20
2022-10-29T06:55:30.164Z,12.30
2022-10-29T06:58:02.106Z,12.30
2022-10-29T07:00:30.284Z,12.50
2022-10-29T07:02:58.028Z,12.50
2022-10-29T07:05:26.419Z,12.50
2022-10-29T07:07:58.405Z,12.60
2022-10-29T07:10:28.956Z,12.80
2022-10-29T07:12:56.147Z,13.00
2022-10-29T07:15:27.233Z,13.20
2022-10-29T07:18:06.064Z,13.40
2022-10-29T07:20:36.512Z,13.70
2022-10-29T07:23:03.288Z,14.00
2022-10-29T07:25:31.882Z,14.30
2022-10-29T07:28:12.278Z,14.60
2022-10-29T07:30:40.135Z,14.70
2022-10-29T07:33:07.128Z,14.70
2022-10-29T07:35:34.860Z,14.60
2022-10-29T07:38:08.784Z,14.60
2022-10-29T07:40:38.907Z,14.60
2022-10-29T07:43:05.950Z,14.60
2022-10-29T07:45:33.713Z,14.50
2022-10-29T07:48:03.124Z,14.60
2022-10-29T07:50:31.520Z,14.60
2022-10-29T07:53:03.008Z,14.70
2022-10-29T07:58:07.956Z,14.60
2022-10-29T08:00:37.721Z,14.60
2022-10-29T08:03:05.111Z,14.60
2022-10-29T08:05:32.149Z,14.50
2022-10-29T08:08:00.043Z,14.50
2022-10-29T08:10:28.441Z,14.70
2022-10-29T08:12:58.943Z,14.80
2022-10-29T08:15:27.972Z,14.80
2022-10-29T08:17:55.280Z,14.90
2022-10-29T08:20:25.063Z,15.00
2022-10-29T08:22:51.925Z,15.10
2022-10-29T08:25:18.962Z,15.30
2022-10-29T08:27:45.876Z,15.30
2022-10-29T08:30:14.183Z,15.50
2022-10-29T08:32:47.511Z,15.50
2022-10-29T08:35:15.289Z,15.50
2022-10-29T08:37:44.287Z,15.40
2022-10-29T08:40:30.412Z,15.50
2022-10-29T08:43:34.572Z,15.50
2022-10-29T08:46:01.705Z,15.70
2022-10-29T08:48:34.250Z,15.70
2022-10-29T08:51:30.455Z,15.70
2022-10-29T08:54:25.480Z,15.80
2022-10-29T08:56:54.144Z,15.80
2022-10-29T08:59:24.264Z,16.00
2022-10-29T09:01:53.655Z,16.10
2022-10-29T09:04:31.692Z,16.30
2022-10-29T09:07:26.048Z,16.50
2022-10-29T09:10:20.587Z,16.60
2022-10-29T09:13:25.960Z,16.90
2022-10-29T09:16:24.367Z,17.00
2022-10-29T09:19:03.491Z,17.10
2022-10-29T09:21:48.896Z,17.20
2022-10-29T09:24:30.653Z,17.40
2022-10-29T09:27:09.717Z,17.60
2022-10-29T09:30:03.353Z,17.80
2022-10-29T09:32:47.782Z,18.10
2022-10-29T09:35:19.282Z,18.60
2022-10-29T09:37:59.380Z,19.30
2022-10-29T09:40:34.342Z,20.40
2022-10-29T09:43:13.268Z,21.20
2022-10-29T09:45:48.811Z,21.90
2022-10-29T09:48:31.423Z,22.30
2022-10-29T09:51:11.210Z,22.90
2022-10-29T09:53:37.994Z,23.40
2022-10-29T09:56:08.376Z,23.50
2022-10-29T09:58:41.636Z,23.60
2022-10-29T10:01:08.589Z,24.30
2022-10-29T10:03:45.782Z,24.60
2022-10-29T10:06:16.190Z,24.30
2022-10-29T10:09:04.470Z,24.90
2022-10-29T10:11:40.042Z,25.60
2022-10-29T10:14:20.712Z,26.00
2022-10-29T10:17:00.435Z,26.10
2022-10-29T10:19:31.197Z,26.00
2022-10-29T10:22:04.529Z,26.40
2022-10-29T10:24:38.212Z,27.10
2022-10-29T10:27:20.169Z,27.50
2022-10-29T10:30:04.939Z,28.10
2022-10-29T10:32:32.407Z,27.50
2022-10-29T10:34:59.192Z,27.40
2022-10-29T10:37:26.090Z,26.50
2022-10-29T10:40:04.850Z,26.50
2022-10-29T10:42:37.131Z,25.90
2022-10-29T10:45:23.027Z,26.60
2022-10-29T10:47:57.427Z,27.00
2022-10-29T10:50:34.013Z,27.40
2022-10-29T10:53:05.970Z,27.70
2022-10-29T10:55:37.937Z,28.40
2022-10-29T10:58:42.939Z,29.00
2022-10-29T11:01:20.689Z,29.40
2022-10-29T11:03:52.017Z,29.70
2022-10-29T11:06:29.878Z,29.90
2022-10-29T11:09:35.929Z,30.60
2022-10-29T11:12:11.695Z,29.80
2022-10-29T11:14:49.009Z,30.00
2022-10-29T11:17:52.916Z,30.60
2022-10-29T11:20:35.681Z,30.90
2022-10-29T11:23:25.503Z,30.70
2022-10-29T11:26:08.175Z,31.20
2022-10-29T11:28:53.970Z,31.70
2022-10-29T11:31:31.087Z,31.90
2022-10-29T11:34:39.226Z,29.80
2022-10-29T11:37:27.770Z,29.30
2022-10-29T11:40:04.460Z,30.20
2022-10-29T11:42:31.399Z,30.80
2022-10-29T11:45:00.967Z,29.50
2022-10-29T11:47:39.660Z,29.90
2022-10-29T11:50:28.228Z,29.60
2022-10-29T11:53:02.576Z,29.90
2022-10-29T11:55:43.279Z,30.90
2022-10-29T11:58:37.974Z,31.70
2022-10-29T12:01:50.462Z,32.40
2022-10-29T12:04:32.843Z,32.70
2022-10-29T12:07:18.344Z,33.20
2022-10-29T12:10:30.419Z,34.00
2022-10-29T12:13:33.299Z,34.40
2022-10-29T12:16:33.834Z,34.20
2022-10-29T12:19:14.957Z,35.00
2022-10-29T12:22:32.134Z,35.40
2022-10-29T12:25:19.018Z,35.40
2022-10-29T12:28:00.895Z,36.10
2022-10-29T12:30:34.685Z,36.40
2022-10-29T12:33:42.073Z,36.40
2022-10-29T12:36:48.931Z,36.40
2022-10-29T12:39:45.555Z,36.20
2022-10-29T12:42:26.269Z,36.70
2022-10-29T12:45:26.149Z,36.90
2022-10-29T12:47:57.294Z,37.30
2022-10-29T12:51:05.653Z,37.20
2022-10-29T12:53:54.031Z,37.20
2022-10-29T12:56:22.883Z,37.70
2022-10-29T12:58:57.051Z,37.30
2022-10-29T13:01:50.017Z,37.30
2022-10-29T13:04:34.161Z,38.10
2022-10-29T13:07:05.174Z,38.20
2022-10-29T13:09:36.491Z,38.40
2022-10-29T13:12:12.358Z,38.90
2022-10-29T13:14:56.450Z,38.50
2022-10-29T13:17:33.077Z,38.60
2022-10-29T13:20:04.772Z,38.50
2022-10-29T13:22:57.130Z,38.40
2022-10-29T13:25:40.355Z,38.00
2022-10-29T13:28:10.053Z,38.20
2022-10-29T13:30:39.871Z,38.10
2022-10-29T13:33:21.926Z,38.20
2022-10-29T13:36:01.225Z,38.20
2022-10-29T13:39:19.476Z,37.30
2022-10-29T13:41:51.167Z,37.40
2022-10-29T13:44:29.068Z,37.70
2022-10-29T13:47:21.630Z,37.80
2022-10-29T13:49:49.489Z,37.10
2022-10-29T13:52:21.670Z,37.00
2022-10-29T13:55:03.033Z,37.20
2022-10-29T13:57:42.745Z,36.40
2022-10-29T14:00:12.114Z,36.40
2022-10-29T14:03:14.964Z,36.60
2022-10-29T14:05:56.084Z,36.60
2022-10-29T14:08:37.856Z,36.70
2022-10-29T14:11:18.225Z,36.60
2022-10-29T14:13:51.219Z,36.20
2022-10-29T14:16:21.969Z,36.00
2022-10-29T14:18:50.736Z,35.40
2022-10-29T14:21:37.864Z,35.10
2022-10-29T14:24:08.297Z,34.50
2022-10-29T14:26:39.653Z,33.90
2022-10-29T14:29:26.046Z,33.30
2022-10-29T14:32:20.077Z,32.60
2022-10-29T14:34:51.660Z,31.70
2022-10-29T14:37:33.498Z,30.80
2022-10-29T14:40:06.322Z,30.10
2022-10-29T14:42:43.088Z,29.40
2022-10-29T14:45:25.343Z,29.30
2022-10-29T14:47:58.327Z,29.40
2022-10-29T14:50:30.096Z,29.90
2022-10-29T14:53:02.054Z,29.80
2022-10-29T14:55:35.312Z,29.00
2022-10-29T14:58:28.650Z,28.30
2022-10-29T15:00:57.329Z,27.50
2022-10-29T15:03:27.288Z,26.70
2022-10-29T15:06:18.897Z,26.10
2022-10-29T15:08:58.152Z,25.50
2022-10-29T15:11:36.569Z,25.00
2022-10-29T15:14:23.736Z,24.60
2022-10-29T15:16:50.560Z,24.20
2022-10-29T15:19:18.104Z,23.70
2022-10-29T15:21:45.387Z,23.40
2022-10-29T15:24:20.753Z,23.10
2022-10-29T15:26:56.516Z,22.80
2022-10-29T15:29:32.206Z,22.50
2022-10-29T15:32:01.067Z,22.40
2022-10-29T15:34:37.558Z,22.20
2022-10-29T15:37:19.635Z,22.00
2022-10-29T15:40:09.501Z,21.70
2022-10-29T15:42:37.170Z,21.50
2022-10-29T15:45:15.685Z,21.20
2022-10-29T15:47:48.281Z,21.00
2022-10-29T15:50:26.495Z,20.80
2022-10-29T15:52:57.576Z,20.60
2022-10-29T15:55:34.401Z,20.40
2022-10-29T15:58:16.419Z,20.20
2022-10-29T16:00:43.794Z,20.00
2022-10-29T16:03:20.103Z,19.80
2022-10-29T16:06:05.623Z,19.60
2022-10-29T16:08:42.104Z,19.30
2022-10-29T16:11:14.455Z,19.20
2022-10-29T16:13:41.842Z,19.00
2022-10-29T16:16:25.509Z,18.80
2022-10-29T16:18:53.312Z,18.70
2022-10-29T16:21:24.255Z,18.70
2022-10-29T16:23:51.757Z,18.60
2022-10-29T16:26:22.829Z,18.60
2022-10-29T16:28:50.170Z,18.60
2022-10-29T16:31:26.175Z,18.50
2022-10-29T16:33:57.501Z,18.40
2022-10-29T16:36:24.940Z,18.40
2022-10-29T16:38:51.712Z,18.40
2022-10-29T16:41:20.119Z,18.40
2022-10-29T16:43:47.849Z,18.50
2022-10-29T16:46:15.441Z,18.50
2022-10-29T16:48:42.275Z,18.40
2022-10-29T16:51:09.233Z,18.40
2022-10-29T16:53:36.070Z,18.40
2022-10-29T16:56:03.460Z,18.20
2022-10-29T16:58:30.274Z,18.20
2022-10-29T17:01:05.832Z,18.10
2022-10-29T17:03:33.169Z,18.00
2022-10-29T17:06:10.645Z,17.90
2022-10-29T17:08:38.214Z,17.90
2022-10-29T17:11:08.724Z,17.70
2022-10-29T17:13:35.952Z,17.70
2022-10-29T17:16:14.616Z,17.60
2022-10-29T17:18:41.470Z,17.50
2022-10-29T17:21:08.278Z,17.50
2022-10-29T17:23:35.076Z,17.40
2022-10-29T17:26:02.243Z,17.30
2022-10-29T17:28:29.450Z,17.30
2022-10-29T17:30:56.247Z,17.30
2022-10-29T17:33:23.087Z,17.10
2022-10-29T17:35:49.892Z,17.00
2022-10-29T17:38:16.685Z,16.90
2022-10-29T17:40:46.096Z,16.80
2022-10-29T17:43:13.245Z,16.80
2022-10-29T17:45:42.115Z,16.80
2022-10-29T17:48:08.926Z,16.70
2022-10-29T17:50:36.236Z,16.70
2022-10-29T17:53:03.413Z,16.60
2022-10-29T17:55:30.480Z,16.60
2022-10-29T17:57:57.480Z,16.50
2022-10-29T18:00:25.330Z,16.50
2022-10-29T18:02:52.146Z,16.40
2022-10-29T18:05:19.462Z,16.50
2022-10-29T18:07:46.268Z,16.50
2022-10-29T18:10:13.112Z,16.50
2022-10-29T18:12:39.920Z,16.40
2022-10-29T18:15:07.392Z,16.40
2022-10-29T18:17:34.249Z,16.30
2022-10-29T18:20:01.123Z,16.30
2022-10-29T18:22:28.167Z,16.20
2022-10-29T18:24:54.983Z,16.20
2022-10-29T18:27:21.754Z,16.20
2022-10-29T18:29:48.624Z,16.10
2022-10-29T18:32:15.685Z,16.00
2022-10-29T18:34:42.507Z,15.90
2022-10-29T18:37:09.301Z,15.90
2022-10-29T18:39:36.135Z,15.80
2022-10-29T18:42:02.953Z,15.70
2022-10-29T18:44:29.831Z,15.70
2022-10-29T18:46:56.609Z,15.70
2022-10-29T18:49:23.557Z,15.60
2022-10-29T18:51:50.356Z,15.60
2022-10-29T18:54:17.250Z,15.50
2022-10-29T18:56:44.174Z,15.50
2022-10-29T18:59:15.541Z,15.40
2022-10-29T19:01:42.487Z,15.40
2022-10-29T19:04:14.023Z,15.40
2022-10-29T19:06:41.096Z,15.40
2022-10-29T19:09:10.728Z,15.50
2022-10-29T19:11:37.808Z,15.30
2022-10-29T19:14:08.023Z,15.30
2022-10-29T19:16:34.990Z,15.30
2022-10-29T19:21:39.090Z,15.20
2022-10-29T19:24:07.326Z,15.10
2022-10-29T19:26:35.899Z,15.10
2022-10-29T19:29:05.153Z,15.10
2022-10-29T19:31:34.708Z,15.00
2022-10-29T19:34:05.925Z,14.90
2022-10-29T19:36:34.823Z,14.90
2022-10-29T19:39:01.964Z,15.00
2022-10-29T19:41:29.314Z,15.10
2022-10-29T19:44:02.183Z,15.10
2022-10-29T19:46:29.943Z,15.10
2022-10-29T19:48:58.312Z,15.10
2022-10-29T19:51:25.175Z,15.10
2022-10-29T19:53:52.015Z,15.10
2022-10-29T19:56:20.526Z,15.10
2022-10-29T19:58:47.386Z,15.00
2022-10-29T20:01:17.119Z,15.00
2022-10-29T20:03:45.106Z,15.00
2022-10-29T20:06:12.306Z,15.00
2022-10-29T20:08:39.453Z,15.00
2022-10-29T20:11:06.677Z,14.90
2022-10-29T20:13:33.819Z,15.00
2022-10-29T20:16:06.147Z,15.00
2022-10-29T20:18:35.388Z,15.00
2022-10-29T20:21:02.285Z,15.10
2022-10-29T20:23:29.213Z,15.00
2022-10-29T20:25:56.000Z,15.00
2022-10-29T20:28:22.874Z,14.90
2022-10-29T20:30:49.706Z,14.90
2022-10-29T20:33:16.482Z,14.90
2022-10-29T20:35:43.285Z,14.90
2022-10-29T20:38:10.082Z,14.90
2022-10-29T20:40:37.054Z,14.80
2022-10-29T20:43:03.924Z,14.80
2022-10-29T20:45:30.789Z,14.80
2022-10-29T20:47:57.800Z,14.80
2022-10-29T20:50:24.840Z,14.80
2022-10-29T20:52:53.596Z,14.70
2022-10-29T20:55:20.448Z,14.70
2022-10-29T20:57:47.307Z,14.70
2022-10-29T21:00:14.591Z,14.70
2022-10-29T21:02:41.487Z,14.60
2022-10-29T21:05:08.856Z,14.60
2022-10-29T21:07:35.737Z,14.50
2022-10-29T21:10:02.520Z,14.40
2022-10-29T21:12:29.286Z,14.40
2022-10-29T21:14:56.076Z,14.30
2022-10-29T21:17:22.868Z,14.30
2022-10-29T21:19:49.741Z,14.20
2022-10-29T21:22:18.820Z,14.20
2022-10-29T21:24:46.111Z,14.10
2022-10-29T21:27:12.897Z,14.10
2022-10-29T21:29:39.745Z,14.10
2022-10-29T21:32:07.753Z,14.10
2022-10-29T21:34:36.009Z,14.00
2022-10-29T21:37:02.793Z,13.90
2022-10-29T21:39:29.846Z,13.90
2022-10-29T21:41:57.030Z,13.90
2022-10-29T21:44:23.804Z,13.80
2022-10-29T21:46:50.658Z,13.80
2022-10-29T21:49:17.455Z,13.80
2022-10-29T21:51:44.227Z,13.80
2022-10-29T21:54:11.040Z,13.70
2022-10-29T21:56:37.842Z,13.70
2022-10-29T21:59:04.602Z,13.60
2022-10-29T22:01:31.539Z,13.60
2022-10-29T22:03:58.427Z,13.60
2022-10-29T22:06:28.325Z,13.50
2022-10-29T22:08:58.577Z,13.40
2022-10-29T22:11:27.260Z,13.30
2022-10-29T22:13:54.944Z,13.20
2022-10-29T22:16:22.801Z,13.20
2022-10-29T22:18:50.893Z,13.20
2022-10-29T22:21:21.342Z,13.10
2022-10-29T22:23:51.571Z,13.00
2022-10-29T22:26:23.847Z,13.10
2022-10-29T22:28:50.698Z,13.00
2022-10-29T22:31:19.875Z,13.00
2022-10-29T22:33:47.328Z,13.00
2022-10-29T22:36:22.126Z,13.00
2022-10-29T22:38:57.530Z,12.90
2022-10-29T22:41:28.540Z,12.90
2022-10-29T22:43:58.787Z,13.00
2022-10-29T22:46:26.960Z,12.90
2022-10-29T22:48:53.927Z,12.90
2022-10-29T22:51:24.520Z,13.00
2022-10-29T22:53:52.768Z,12.90
2022-10-29T22:56:32.707Z,12.80
2022-10-29T22:58:59.992Z,12.70
2022-10-29T23:01:29.855Z,12.70
2022-10-29T23:03:58.664Z,12.50
2022-10-29T23:06:26.271Z,12.50
2022-10-29T23:08:56.711Z,12.40
2022-10-29T23:11:26.609Z,12.30
2022-10-29T23:14:03.598Z,12.30
2022-10-29T23:16:32.663Z,12.40
2022-10-29T23:19:02.642Z,12.30
2022-10-29T23:21:29.849Z,12.30
2022-10-29T23:23:57.758Z,12.20
2022-10-29T23:26:25.754Z,12.30
2022-10-29T23:28:52.550Z,12.30
2022-10-29T23:31:25.697Z,12.30
2022-10-29T23:33:55.071Z,12.20
2022-10-29T23:36:24.396Z,12.20
2022-10-29T23:38:59.867Z,12.20
2022-10-29T23:41:30.978Z,12.20
2022-10-29T23:43:58.338Z,12.20
2022-10-29T23:46:25.163Z,12.20
2022-10-29T23:48:51.985Z,12.20
2022-10-29T23:51:19.109Z,12.10
2022-10-29T23:53:45.972Z,12.20
2022-10-29T23:56:12.742Z,12.10
2022-10-29T23:58:39.507Z,12.10
